^^
Saratoga-Weather Station Historical Data
Daily Summary for June 18, 2021 Units:  Metric    English   Both
Daily Weekly Monthly Yearly Custom
  High: Low: Average:
Temperature: 14.8 °C 3.8 °C 8 °C
Dew Point: 11 °C 3.2 °C 6.7 °C
Humidity: 98% 76% 92%
Wind Speed: 6.4km/h 0km/h 0.5km/h
Wind Gust: 11.3km/h - -
Wind- - East
Pressure: 1024.7 hPa 1021.7 hPa -
Precipitation: 0.0 mm    
Historical Graphs
 
 
Tabular Data for June 18, 2021
Time Temperature Dew Point Pressure Wind Wind Speed Wind Gust Humidity Rainfall Rate (Hourly) solar
00:00 6.1 °C 5.4 °C 1021.7 hPa Calm     95% 0.0 mm 0 W/m2
00:05 6.1 °C 5.4 °C 1021.7 hPa Calm     95% 0.0 mm 0 W/m2
00:10 6.1 °C 5.4 °C 1021.7 hPa Calm     95% 0.0 mm 0 W/m2
00:15 6 °C 5.3 °C 1022.0 hPa Calm     95% 0.0 mm 0 W/m2
00:20 6 °C 5.3 °C 1022.4 hPa Calm     95% 0.0 mm 0 W/m2
00:25 5.9 °C 5.2 °C 1022.0 hPa Calm     95% 0.0 mm 0 W/m2
00:30 5.9 °C 5.2 °C 1022.4 hPa SW 1.4 km/h 1.6 km/h 95% 0.0 mm 0 W/m2
00:35 5.9 °C 5.2 °C 1022.4 hPa Calm   1.6 km/h 95% 0.0 mm 0 W/m2
00:40 5.8 °C 5.1 °C 1022.4 hPa Calm   1.6 km/h 95% 0.0 mm 0 W/m2
00:45 5.8 °C 5.1 °C 1022.4 hPa Calm     95% 0.0 mm 0 W/m2
00:50 5.7 °C 5 °C 1022.4 hPa Calm     95% 0.0 mm 0 W/m2
00:55 5.7 °C 5 °C 1022.4 hPa Calm     95% 0.0 mm 0 W/m2
01:00 5.6 °C 4.9 °C 1022.4 hPa Calm     95% 0.0 mm 0 W/m2
01:05 5.6 °C 4.9 °C 1022.4 hPa Calm     95% 0.0 mm 0 W/m2
01:11 5.7 °C 5 °C 1022.4 hPa Calm     95% 0.0 mm 0 W/m2
01:16 5.6 °C 4.9 °C 1022.4 hPa Calm     95% 0.0 mm 0 W/m2
01:21 5.6 °C 4.9 °C 1022.4 hPa Calm     95% 0.0 mm 0 W/m2
01:26 5.4 °C 4.7 °C 1022.4 hPa Calm     95% 0.0 mm 0 W/m2
01:31 5.3 °C 4.6 °C 1022.4 hPa Calm     95% 0.0 mm 0 W/m2
01:36 5.3 °C 4.6 °C 1022.4 hPa Calm     95% 0.0 mm 0 W/m2
01:41 5.2 °C 4.5 °C 1022.4 hPa Calm     95% 0.0 mm 0 W/m2
01:46 5.1 °C 4.4 °C 1022.4 hPa Calm     95% 0.0 mm 0 W/m2
01:51 5 °C 4.3 °C 1022.4 hPa Calm     95% 0.0 mm 0 W/m2
01:56 4.9 °C 4.2 °C 1022.4 hPa Calm     95% 0.0 mm 0 W/m2
02:01 4.9 °C 4.2 °C 1022.4 hPa Calm     95% 0.0 mm 0 W/m2
02:06 4.9 °C 4.2 °C 1022.4 hPa Calm     95% 0.0 mm 0 W/m2
02:11 4.8 °C 4.1 °C 1022.4 hPa Calm     95% 0.0 mm 0 W/m2
02:16 4.8 °C 4.1 °C 1022.4 hPa Calm     95% 0.0 mm 0 W/m2
02:21 4.8 °C 4.1 °C 1022.4 hPa Calm     95% 0.0 mm 0 W/m2
02:26 4.7 °C 4 °C 1022.4 hPa Calm     95% 0.0 mm 0 W/m2
02:31 4.6 °C 3.9 °C 1022.4 hPa Calm     95% 0.0 mm 0 W/m2
02:36 4.5 °C 3.8 °C 1022.4 hPa Calm     95% 0.0 mm 0 W/m2
02:41 4.4 °C 3.7 °C 1022.4 hPa Calm     95% 0.0 mm 0 W/m2
02:46 4.4 °C 3.8 °C 1022.4 hPa Calm     96% 0.0 mm 0 W/m2
02:51 4.4 °C 3.8 °C 1022.7 hPa Calm     96% 0.0 mm 0 W/m2
02:56 4.3 °C 3.6 °C 1022.4 hPa Calm     95% 0.0 mm 0 W/m2
03:01 4.3 °C 3.6 °C 1022.7 hPa Calm     95% 0.0 mm 0 W/m2
03:06 4.3 °C 3.7 °C 1022.7 hPa Calm     96% 0.0 mm 0 W/m2
03:11 4.2 °C 3.6 °C 1022.4 hPa Calm     96% 0.0 mm 0 W/m2
03:16 4.2 °C 3.6 °C 1022.7 hPa Calm     96% 0.0 mm 0 W/m2
03:21 4.2 °C 3.6 °C 1022.7 hPa Calm     96% 0.0 mm 0 W/m2
03:26 4.2 °C 3.6 °C 1022.7 hPa Calm     96% 0.0 mm 0 W/m2
03:31 4.2 °C 3.6 °C 1022.7 hPa Calm     96% 0.0 mm 0 W/m2
03:36 4.2 °C 3.6 °C 1022.7 hPa Calm     96% 0.0 mm 0 W/m2
03:41 4.3 °C 3.7 °C 1022.7 hPa Calm     96% 0.0 mm 0 W/m2
03:46 4.4 °C 3.8 °C 1022.7 hPa Calm     96% 0.0 mm 0 W/m2
03:51 4.4 °C 3.8 °C 1022.7 hPa Calm     96% 0.0 mm 0 W/m2
03:56 4.4 °C 3.8 °C 1022.7 hPa Calm     96% 0.0 mm 0 W/m2
04:01 4.4 °C 3.8 °C 1022.4 hPa Calm     96% 0.0 mm 0 W/m2
04:06 4.5 °C 3.9 °C 1022.4 hPa Calm     96% 0.0 mm 0 W/m2
04:11 4.6 °C 4 °C 1022.7 hPa Calm     96% 0.0 mm 0 W/m2
04:16 4.7 °C 4.1 °C 1022.4 hPa Calm     96% 0.0 mm 0 W/m2
04:21 4.7 °C 4.1 °C 1022.7 hPa Calm     96% 0.0 mm 0 W/m2
04:26 4.8 °C 4.2 °C 1022.7 hPa Calm     96% 0.0 mm 0 W/m2
04:31 4.8 °C 4.2 °C 1022.7 hPa Calm     96% 0.0 mm 0 W/m2
04:36 4.8 °C 4.2 °C 1022.7 hPa Calm     96% 0.0 mm 0 W/m2
04:41 4.9 °C 4.3 °C 1022.7 hPa Calm   1.6 km/h 96% 0.0 mm 0 W/m2
04:46 5 °C 4.4 °C 1022.7 hPa Calm     96% 0.0 mm 0 W/m2
04:51 5 °C 4.4 °C 1022.7 hPa Calm   1.6 km/h 96% 0.0 mm 0 W/m2
04:56 5.1 °C 4.5 °C 1022.7 hPa Calm     96% 0.0 mm 0 W/m2
05:01 5.1 °C 4.5 °C 1022.7 hPa Calm     96% 0.0 mm 0 W/m2
05:06 5.1 °C 4.5 °C 1022.7 hPa Calm   1.6 km/h 96% 0.0 mm 0 W/m2
05:11 5 °C 4.4 °C 1022.7 hPa Calm     96% 0.0 mm 0 W/m2
05:16 4.9 °C 4.3 °C 1022.7 hPa Calm     96% 0.0 mm 0 W/m2
05:21 4.8 °C 4.2 °C 1022.7 hPa Calm     96% 0.0 mm 0 W/m2
05:26 4.8 °C 4.2 °C 1022.7 hPa Calm     96% 0.0 mm 0 W/m2
05:31 4.8 °C 4.2 °C 1022.7 hPa Calm     96% 0.0 mm 0 W/m2
05:36 4.7 °C 4.1 °C 1022.7 hPa Calm     96% 0.0 mm 0 W/m2
05:41 4.7 °C 4.1 °C 1022.7 hPa Calm     96% 0.0 mm 0 W/m2
05:46 4.7 °C 4.1 °C 1022.7 hPa Calm     96% 0.0 mm 0 W/m2
05:51 4.7 °C 4.1 °C 1022.7 hPa Calm     96% 0.0 mm 0 W/m2
05:56 4.7 °C 4.1 °C 1022.7 hPa Calm     96% 0.0 mm 0 W/m2
06:01 4.7 °C 4.1 °C 1023.0 hPa Calm     96% 0.0 mm 0 W/m2
06:07 4.7 °C 4.1 °C 1023.0 hPa Calm   1.6 km/h 96% 0.0 mm 0 W/m2
06:12 4.8 °C 4.2 °C 1023.0 hPa Calm     96% 0.0 mm 0 W/m2
06:17 4.7 °C 4.1 °C 1023.0 hPa Calm   3.2 km/h 96% 0.0 mm 0 W/m2
06:22 4.6 °C 4 °C 1023.0 hPa Calm     96% 0.0 mm 0 W/m2
06:27 4.6 °C 4 °C 1023.0 hPa Calm   3.2 km/h 96% 0.0 mm 0 W/m2
06:32 4.6 °C 4 °C 1023.0 hPa Calm     96% 0.0 mm 0 W/m2
06:37 4.6 °C 4 °C 1023.0 hPa Calm     96% 0.0 mm 0 W/m2
06:42 4.5 °C 3.9 °C 1023.0 hPa Calm     96% 0.0 mm 0 W/m2
06:47 4.5 °C 3.9 °C 1023.4 hPa Calm     96% 0.0 mm 0 W/m2
06:52 4.4 °C 3.8 °C 1023.4 hPa Calm     96% 0.0 mm 0 W/m2
06:57 4.4 °C 3.8 °C 1023.4 hPa Calm     96% 0.0 mm 0 W/m2
07:02 4.3 °C 3.7 °C 1023.4 hPa Calm     96% 0.0 mm 0 W/m2
07:07 4.3 °C 3.7 °C 1023.0 hPa Calm     96% 0.0 mm 0 W/m2
07:12 4.2 °C 3.6 °C 1023.4 hPa Calm     96% 0.0 mm 0 W/m2
07:17 4.2 °C 3.6 °C 1023.4 hPa Calm     96% 0.0 mm 0 W/m2
07:22 4.1 °C 3.5 °C 1023.4 hPa Calm     96% 0.0 mm 0 W/m2
07:27 4.1 °C 3.5 °C 1023.4 hPa Calm     96% 0.0 mm 0 W/m2
07:32 4.1 °C 3.5 °C 1023.4 hPa NNE 1.4 km/h 3.2 km/h 96% 0.0 mm 0 W/m2
07:37 4 °C 3.4 °C 1023.4 hPa NNE 1.4 km/h 1.6 km/h 96% 0.0 mm 0 W/m2
07:42 3.9 °C 3.3 °C 1023.4 hPa Calm   3.2 km/h 96% 0.0 mm 0 W/m2
07:47 3.9 °C 3.3 °C 1023.4 hPa Calm   1.6 km/h 96% 0.0 mm 0 W/m2
07:52 3.8 °C 3.2 °C 1023.4 hPa Calm   1.6 km/h 96% 0.0 mm 0 W/m2
07:57 3.8 °C 3.2 °C 1023.4 hPa Calm     96% 0.0 mm 0 W/m2
08:02 3.8 °C 3.2 °C 1023.4 hPa Calm     96% 0.0 mm 0 W/m2
08:07 3.8 °C 3.4 °C 1023.4 hPa Calm     97% 0.0 mm 0 W/m2
08:12 3.8 °C 3.4 °C 1023.4 hPa Calm     97% 0.0 mm 5 W/m2
08:17 3.8 °C 3.4 °C 1023.7 hPa Calm     97% 0.0 mm 7 W/m2
08:22 3.8 °C 3.4 °C 1023.7 hPa Calm     97% 0.0 mm 9 W/m2
08:27 3.8 °C 3.4 °C 1023.7 hPa Calm     97% 0.0 mm 11 W/m2
08:32 3.8 °C 3.4 °C 1023.7 hPa Calm     97% 0.0 mm 16 W/m2
08:37 3.8 °C 3.4 °C 1023.7 hPa Calm     97% 0.0 mm 21 W/m2
08:42 3.8 °C 3.4 °C 1023.7 hPa ENE 1.4 km/h 1.6 km/h 97% 0.0 mm 28 W/m2
08:47 3.8 °C 3.4 °C 1024.0 hPa Calm     97% 0.0 mm 30 W/m2
08:52 3.8 °C 3.4 °C 1024.0 hPa Calm   1.6 km/h 97% 0.0 mm 28 W/m2
08:57 3.8 °C 3.4 °C 1024.0 hPa Calm     97% 0.0 mm 37 W/m2
09:02 3.8 °C 3.4 °C 1024.0 hPa Calm     97% 0.0 mm 39 W/m2
09:07 3.8 °C 3.4 °C 1024.0 hPa Calm   1.6 km/h 97% 0.0 mm 40 W/m2
09:12 3.9 °C 3.5 °C 1024.0 hPa Calm   3.2 km/h 97% 0.0 mm 46 W/m2
09:17 3.9 °C 3.5 °C 1024.0 hPa ENE 1.4 km/h 3.2 km/h 97% 0.0 mm 40 W/m2
09:22 4 °C 3.6 °C 1024.4 hPa Calm   3.2 km/h 97% 0.0 mm 54 W/m2
09:27 4 °C 3.6 °C 1024.4 hPa ESE 1.4 km/h 1.6 km/h 97% 0.0 mm 58 W/m2
09:32 4.1 °C 3.7 °C 1024.4 hPa Calm     97% 0.0 mm 74 W/m2
09:37 4.1 °C 3.7 °C 1024.4 hPa Calm   3.2 km/h 97% 0.0 mm 67 W/m2
09:42 4.1 °C 3.7 °C 1024.4 hPa Calm   1.6 km/h 97% 0.0 mm 69 W/m2
09:47 4.2 °C 3.8 °C 1024.4 hPa East 3.2 km/h 3.2 km/h 97% 0.0 mm 74 W/m2
09:52 4.2 °C 3.8 °C 1024.4 hPa Calm   3.2 km/h 97% 0.0 mm 79 W/m2
09:57 4.3 °C 3.9 °C 1024.4 hPa Calm   3.2 km/h 97% 0.0 mm 79 W/m2
10:02 4.3 °C 3.9 °C 1024.4 hPa Calm   1.6 km/h 97% 0.0 mm 83 W/m2
10:07 4.3 °C 3.9 °C 1024.4 hPa Calm   3.2 km/h 97% 0.0 mm 74 W/m2
10:12 4.3 °C 3.9 °C 1024.7 hPa East 1.4 km/h 1.6 km/h 97% 0.0 mm 107 W/m2
10:17 4.3 °C 3.9 °C 1024.4 hPa Calm     97% 0.0 mm 91 W/m2
10:22 4.4 °C 4 °C 1024.4 hPa East 1.4 km/h 1.6 km/h 97% 0.0 mm 113 W/m2
10:27 4.6 °C 4.2 °C 1024.4 hPa ENE 1.4 km/h 3.2 km/h 97% 0.0 mm 114 W/m2
10:32 4.6 °C 4.2 °C 1024.4 hPa Calm     97% 0.0 mm 113 W/m2
10:37 4.7 °C 4.3 °C 1024.4 hPa ENE 1.4 km/h 1.6 km/h 97% 0.0 mm 113 W/m2
10:42 4.8 °C 4.4 °C 1024.4 hPa Calm   1.6 km/h 97% 0.0 mm 111 W/m2
10:47 4.9 °C 4.5 °C 1024.4 hPa NE 1.4 km/h 3.2 km/h 97% 0.0 mm 127 W/m2
10:52 5.1 °C 4.7 °C 1024.4 hPa Calm     97% 0.0 mm 134 W/m2
10:57 5.1 °C 4.7 °C 1024.4 hPa NE 1.4 km/h 3.2 km/h 97% 0.0 mm 137 W/m2
11:02 5.2 °C 4.8 °C 1024.4 hPa Calm     97% 0.0 mm 125 W/m2
11:07 5.3 °C 4.9 °C 1024.4 hPa Calm   3.2 km/h 97% 0.0 mm 160 W/m2
11:12 5.4 °C 5 °C 1024.4 hPa Calm   1.6 km/h 97% 0.0 mm 200 W/m2
11:17 5.6 °C 5.2 °C 1024.4 hPa Calm     97% 0.0 mm 193 W/m2
11:22 5.6 °C 5.2 °C 1024.4 hPa ENE 1.4 km/h 3.2 km/h 97% 0.0 mm 193 W/m2
11:27 5.7 °C 5.3 °C 1024.7 hPa Calm   4.8 km/h 97% 0.0 mm 239 W/m2
11:32 5.8 °C 5.4 °C 1024.7 hPa Calm   1.6 km/h 97% 0.0 mm 156 W/m2
11:37 5.9 °C 5.5 °C 1024.4 hPa Calm   3.2 km/h 97% 0.0 mm 387 W/m2
11:42 6.3 °C 5.9 °C 1024.7 hPa NE 3.2 km/h 4.8 km/h 97% 0.0 mm 431 W/m2
11:47 6.6 °C 6.2 °C 1024.4 hPa NNE 1.4 km/h 4.8 km/h 97% 0.0 mm 167 W/m2
11:52 6.7 °C 6.3 °C 1024.4 hPa Calm   3.2 km/h 97% 0.0 mm 98 W/m2
11:57 6.9 °C 6.5 °C 1024.7 hPa SE 1.4 km/h 4.8 km/h 97% 0.0 mm 111 W/m2
12:02 6.9 °C 6.5 °C 1024.4 hPa ESE 1.4 km/h 4.8 km/h 97% 0.0 mm 130 W/m2
12:07 7.1 °C 6.7 °C 1024.4 hPa SE 3.2 km/h 4.8 km/h 97% 0.0 mm 139 W/m2
12:12 7.4 °C 7 °C 1024.4 hPa NE 6.4 km/h 8 km/h 97% 0.0 mm 156 W/m2
12:17 7.6 °C 7.3 °C 1024.0 hPa ENE 4.7 km/h 6.4 km/h 98% 0.0 mm 172 W/m2
12:22 7.8 °C 7.4 °C 1024.4 hPa East 3.2 km/h 8 km/h 97% 0.0 mm 192 W/m2
12:27 8 °C 7.7 °C 1024.4 hPa Calm   3.2 km/h 98% 0.0 mm 220 W/m2
12:32 8.2 °C 7.9 °C 1024.4 hPa East 1.4 km/h 6.4 km/h 98% 0.0 mm 257 W/m2
12:37 8.5 °C 8.1 °C 1024.4 hPa ENE 3.2 km/h 3.2 km/h 97% 0.0 mm 214 W/m2
12:42 8.8 °C 8.3 °C 1024.0 hPa ENE 3.2 km/h 6.4 km/h 97% 0.0 mm 204 W/m2
12:47 9.1 °C 8.6 °C 1024.0 hPa Calm   3.2 km/h 97% 0.0 mm 209 W/m2
12:52 9.3 °C 8.7 °C 1024.0 hPa East 1.4 km/h 6.4 km/h 96% 0.0 mm 239 W/m2
12:57 9.6 °C 9 °C 1024.0 hPa ENE 1.4 km/h 6.4 km/h 96% 0.0 mm 257 W/m2
13:02 9.9 °C 9 °C 1024.0 hPa ENE 3.2 km/h 4.8 km/h 94% 0.0 mm 251 W/m2
13:07 10.1 °C 8.9 °C 1024.0 hPa ESE 4.7 km/h 4.8 km/h 92% 0.0 mm 153 W/m2
13:12 10.3 °C 8.7 °C 1024.0 hPa East 3.2 km/h 4.8 km/h 90% 0.0 mm 146 W/m2
13:17 10.5 °C 8.6 °C 1023.7 hPa East 3.2 km/h 4.8 km/h 88% 0.0 mm 139 W/m2
13:22 10.7 °C 8.6 °C 1023.7 hPa NE 3.2 km/h 4.8 km/h 87% 0.0 mm 149 W/m2
13:27 10.9 °C 8.6 °C 1023.4 hPa East 1.4 km/h 4.8 km/h 86% 0.0 mm 176 W/m2
13:32 11.2 °C 8.8 °C 1023.7 hPa ESE 3.2 km/h 4.8 km/h 85% 0.0 mm 179 W/m2
13:37 11.4 °C 8.8 °C 1023.7 hPa East 1.4 km/h 4.8 km/h 84% 0.0 mm 178 W/m2
13:42 11.6 °C 9 °C 1023.4 hPa ESE 3.2 km/h 4.8 km/h 84% 0.0 mm 155 W/m2
13:47 11.7 °C 8.9 °C 1023.4 hPa ENE 3.2 km/h 4.8 km/h 83% 0.0 mm 132 W/m2
13:52 11.8 °C 9 °C 1023.4 hPa Calm   4.8 km/h 83% 0.0 mm 113 W/m2
13:57 12 °C 9 °C 1023.4 hPa Calm   4.8 km/h 82% 0.0 mm 116 W/m2
14:02 12.2 °C 9.2 °C 1023.4 hPa ESE 4.7 km/h 9.7 km/h 82% 0.0 mm 127 W/m2
14:07 12.4 °C 9.4 °C 1023.4 hPa East 3.2 km/h 9.7 km/h 82% 0.0 mm 141 W/m2
14:12 12.5 °C 9.3 °C 1023.4 hPa NNE 3.2 km/h 6.4 km/h 81% 0.0 mm 121 W/m2
14:17 12.6 °C 9.4 °C 1023.4 hPa East 1.4 km/h 9.7 km/h 81% 0.0 mm 109 W/m2
14:22 12.7 °C 9.3 °C 1023.0 hPa ESE 3.2 km/h 11.3 km/h 80% 0.0 mm 95 W/m2
14:27 12.9 °C 9.5 °C 1023.0 hPa SE 3.2 km/h 3.2 km/h 80% 0.0 mm 74 W/m2
14:32 12.9 °C 9.5 °C 1023.0 hPa ESE 3.2 km/h 11.3 km/h 80% 0.0 mm 63 W/m2
14:37 13.1 °C 9.7 °C 1023.0 hPa East 1.4 km/h 3.2 km/h 80% 0.0 mm 65 W/m2
14:43 13.1 °C 9.7 °C 1022.7 hPa North 1.4 km/h 3.2 km/h 80% 0.0 mm 70 W/m2
14:48 13.2 °C 9.8 °C 1022.7 hPa East 4.7 km/h 6.4 km/h 80% 0.0 mm 69 W/m2
14:53 13.3 °C 9.9 °C 1022.4 hPa West 3.2 km/h 3.2 km/h 80% 0.0 mm 79 W/m2
14:58 13.3 °C 9.9 °C 1022.4 hPa Calm   3.2 km/h 80% 0.0 mm 98 W/m2
15:03 13.4 °C 10 °C 1022.4 hPa Calm   3.2 km/h 80% 0.0 mm 102 W/m2
15:08 13.6 °C 10.2 °C 1022.7 hPa Calm   4.8 km/h 80% 0.0 mm 118 W/m2
15:13 13.7 °C 10.3 °C 1022.7 hPa ENE 1.4 km/h 1.6 km/h 80% 0.0 mm 134 W/m2
15:18 13.7 °C 10.1 °C 1022.4 hPa Calm   1.6 km/h 79% 0.0 mm 153 W/m2
15:23 13.8 °C 10.4 °C 1022.4 hPa South 1.4 km/h 4.8 km/h 80% 0.0 mm 183 W/m2
15:28 13.9 °C 10.5 °C 1022.4 hPa Calm     80% 0.0 mm 193 W/m2
15:33 14 °C 10.6 °C 1022.7 hPa South 1.4 km/h 1.6 km/h 80% 0.0 mm 188 W/m2
15:38 14.2 °C 10.6 °C 1022.7 hPa Calm   1.6 km/h 79% 0.0 mm 185 W/m2
15:43 14.3 °C 10.3 °C 1022.7 hPa Calm   3.2 km/h 77% 0.0 mm 188 W/m2
15:48 14.4 °C 10.4 °C 1022.7 hPa Calm   1.6 km/h 77% 0.0 mm 188 W/m2
15:53 14.6 °C 10.8 °C 1022.4 hPa Calm   3.2 km/h 78% 0.0 mm 176 W/m2
15:58 14.7 °C 10.5 °C 1022.4 hPa East 4.7 km/h 9.7 km/h 76% 0.0 mm 163 W/m2
16:03 14.7 °C 10.9 °C 1022.4 hPa ENE 3.2 km/h 4.8 km/h 78% 0.0 mm 158 W/m2
16:08 14.8 °C 11 °C 1022.0 hPa SSE 1.4 km/h 3.2 km/h 78% 0.0 mm 153 W/m2
16:13 14.8 °C 10.6 °C 1022.4 hPa SE 1.4 km/h 6.4 km/h 76% 0.0 mm 151 W/m2
16:18 14.7 °C 10.5 °C 1022.4 hPa SSW 1.4 km/h 3.2 km/h 76% 0.0 mm 160 W/m2
16:23 14.8 °C 10.8 °C 1022.4 hPa Calm   6.4 km/h 77% 0.0 mm 156 W/m2
16:28 14.7 °C 10.7 °C 1022.4 hPa SSE 1.4 km/h 4.8 km/h 77% 0.0 mm 148 W/m2
16:33 14.7 °C 10.5 °C 1022.4 hPa Calm   1.6 km/h 76% 0.0 mm 146 W/m2
16:38 14.8 °C 10.8 °C 1022.4 hPa Calm   3.2 km/h 77% 0.0 mm 142 W/m2
16:43 14.8 °C 10.8 °C 1022.4 hPa Calm   6.4 km/h 77% 0.0 mm 146 W/m2
16:48 14.8 °C 10.6 °C 1022.0 hPa East 1.4 km/h 6.4 km/h 76% 0.0 mm 139 W/m2
16:53 14.7 °C 10.5 °C 1022.4 hPa Calm   4.8 km/h 76% 0.0 mm 104 W/m2
16:58 14.7 °C 10.7 °C 1022.7 hPa Calm   3.2 km/h 77% 0.0 mm 79 W/m2
17:03 14.6 °C 10.6 °C 1022.7 hPa Calm   3.2 km/h 77% 0.0 mm 69 W/m2
17:08 14.5 °C 10.7 °C 1022.7 hPa Calm   1.6 km/h 78% 0.0 mm 65 W/m2
17:13 14.3 °C 10.7 °C 1023.0 hPa Calm     79% 0.0 mm 63 W/m2
17:18 14.2 °C 10.8 °C 1023.0 hPa Calm     80% 0.0 mm 56 W/m2
17:23 14 °C 10.8 °C 1022.7 hPa Calm     81% 0.0 mm 51 W/m2
17:28 13.8 °C 10.8 °C 1022.7 hPa Calm     82% 0.0 mm 49 W/m2
17:33 13.6 °C 10.8 °C 1022.7 hPa Calm     83% 0.0 mm 47 W/m2
17:38 13.4 °C 10.8 °C 1022.4 hPa Calm     84% 0.0 mm 44 W/m2
17:43 13.2 °C 10.6 °C 1022.4 hPa Calm     84% 0.0 mm 40 W/m2
17:48 13.1 °C 10.6 °C 1022.4 hPa Calm     85% 0.0 mm 39 W/m2
17:53 12.9 °C 10.6 °C 1022.4 hPa Calm     86% 0.0 mm 40 W/m2
17:58 12.8 °C 10.5 °C 1022.4 hPa Calm     86% 0.0 mm 37 W/m2
18:03 12.7 °C 10.6 °C 1022.7 hPa Calm     87% 0.0 mm 30 W/m2
18:08 12.6 °C 10.5 °C 1022.7 hPa Calm   3.2 km/h 87% 0.0 mm 26 W/m2
18:13 12.4 °C 10.3 °C 1023.0 hPa NE 1.4 km/h 1.6 km/h 87% 0.0 mm 21 W/m2
18:18 12.3 °C 10.4 °C 1022.7 hPa Calm   3.2 km/h 88% 0.0 mm 14 W/m2
18:23 12.2 °C 10.3 °C 1022.4 hPa Calm     88% 0.0 mm 11 W/m2
18:28 12.1 °C 10.2 °C 1022.4 hPa Calm     88% 0.0 mm 5 W/m2
18:33 12 °C 10.1 °C 1022.4 hPa Calm     88% 0.0 mm 0 W/m2
18:38 11.9 °C 10.1 °C 1022.0 hPa Calm     89% 0.0 mm 0 W/m2
18:43 11.8 °C 10 °C 1022.0 hPa Calm   4.8 km/h 89% 0.0 mm 0 W/m2
18:48 11.8 °C 10.2 °C 1022.0 hPa Calm   3.2 km/h 90% 0.0 mm 0 W/m2
18:53 11.7 °C 10.1 °C 1022.0 hPa NE 4.7 km/h 4.8 km/h 90% 0.0 mm 0 W/m2
18:58 11.7 °C 10.1 °C 1022.0 hPa Calm   1.6 km/h 90% 0.0 mm 0 W/m2
19:03 11.7 °C 10.1 °C 1022.0 hPa Calm     90% 0.0 mm 0 W/m2
19:08 11.6 °C 10 °C 1022.0 hPa Calm   1.6 km/h 90% 0.0 mm 0 W/m2
19:13 11.6 °C 10 °C 1022.4 hPa Calm   1.6 km/h 90% 0.0 mm 0 W/m2
19:18 11.6 °C 10 °C 1022.4 hPa SE 1.4 km/h 1.6 km/h 90% 0.0 mm 0 W/m2
19:23 11.4 °C 9.8 °C 1022.4 hPa Calm     90% 0.0 mm 0 W/m2
19:28 11.3 °C 9.7 °C 1022.7 hPa Calm     90% 0.0 mm 0 W/m2
19:33 11.2 °C 9.6 °C 1022.7 hPa Calm   1.6 km/h 90% 0.0 mm 0 W/m2
19:38 11.1 °C 9.5 °C 1022.7 hPa Calm     90% 0.0 mm 0 W/m2
19:43 10.9 °C 9.3 °C 1023.0 hPa Calm     90% 0.0 mm 0 W/m2
19:48 10.8 °C 9.4 °C 1023.0 hPa Calm     91% 0.0 mm 0 W/m2
19:53 10.7 °C 9.3 °C 1023.0 hPa Calm     91% 0.0 mm 0 W/m2
19:58 10.7 °C 9.3 °C 1023.0 hPa SE 1.4 km/h 1.6 km/h 91% 0.0 mm 0 W/m2
20:03 10.6 °C 9.4 °C 1023.0 hPa Calm   1.6 km/h 92% 0.0 mm 0 W/m2
20:08 10.4 °C 9.2 °C 1023.0 hPa Calm     92% 0.0 mm 0 W/m2
20:13 10.4 °C 9.2 °C 1023.4 hPa Calm     92% 0.0 mm 0 W/m2
20:18 10.3 °C 9.1 °C 1023.0 hPa Calm     92% 0.0 mm 0 W/m2
20:23 10.2 °C 9.1 °C 1023.0 hPa Calm   1.6 km/h 93% 0.0 mm 0 W/m2
20:28 10.2 °C 9.1 °C 1023.0 hPa Calm     93% 0.0 mm 0 W/m2
20:33 10.1 °C 9 °C 1023.0 hPa Calm   1.6 km/h 93% 0.0 mm 0 W/m2
20:38 10.1 °C 9 °C 1023.0 hPa Calm     93% 0.0 mm 0 W/m2
20:43 10.1 °C 9.2 °C 1023.0 hPa Calm     94% 0.0 mm 0 W/m2
20:48 10.1 °C 9.2 °C 1023.0 hPa Calm     94% 0.0 mm 0 W/m2
20:53 9.9 °C 9 °C 1023.0 hPa Calm     94% 0.0 mm 0 W/m2
20:58 9.9 °C 9 °C 1023.0 hPa Calm     94% 0.0 mm 0 W/m2
21:03 9.8 °C 8.9 °C 1022.7 hPa Calm     94% 0.0 mm 0 W/m2
21:08 9.8 °C 8.9 °C 1022.7 hPa Calm     94% 0.0 mm 0 W/m2
21:13 9.8 °C 8.9 °C 1022.7 hPa Calm     94% 0.0 mm 0 W/m2
21:18 9.7 °C 8.8 °C 1023.0 hPa Calm     94% 0.0 mm 0 W/m2
21:23 9.7 °C 8.8 °C 1023.0 hPa Calm     94% 0.0 mm 0 W/m2
21:28 9.6 °C 8.7 °C 1023.0 hPa Calm     94% 0.0 mm 0 W/m2
21:33 9.6 °C 8.7 °C 1023.0 hPa Calm     94% 0.0 mm 0 W/m2
21:38 9.4 °C 8.5 °C 1023.0 hPa Calm     94% 0.0 mm 0 W/m2
21:43 9.4 °C 8.5 °C 1022.7 hPa Calm     94% 0.0 mm 0 W/m2
21:48 9.4 °C 8.5 °C 1023.0 hPa Calm     94% 0.0 mm 0 W/m2
21:53 9.3 °C 8.5 °C 1023.0 hPa Calm     95% 0.0 mm 0 W/m2
21:58 9.3 °C 8.5 °C 1023.0 hPa Calm     95% 0.0 mm 0 W/m2
22:03 9.2 °C 8.4 °C 1023.0 hPa Calm     95% 0.0 mm 0 W/m2
22:08 9.2 °C 8.3 °C 1023.0 hPa Calm     94% 0.0 mm 0 W/m2
22:13 9.1 °C 8.2 °C 1023.0 hPa Calm     94% 0.0 mm 0 W/m2
22:18 9 °C 8.2 °C 1023.0 hPa Calm     95% 0.0 mm 0 W/m2
22:23 8.9 °C 8.1 °C 1023.0 hPa Calm     95% 0.0 mm 0 W/m2
22:28 8.9 °C 8.1 °C 1023.0 hPa Calm     95% 0.0 mm 0 W/m2
22:33 8.9 °C 8.1 °C 1023.0 hPa Calm     95% 0.0 mm 0 W/m2
22:38 8.9 °C 8.1 °C 1023.0 hPa Calm     95% 0.0 mm 0 W/m2
22:44 8.9 °C 8.1 °C 1023.0 hPa Calm     95% 0.0 mm 0 W/m2
22:49 8.8 °C 8 °C 1023.0 hPa Calm     95% 0.0 mm 0 W/m2
22:54 8.8 °C 8 °C 1023.0 hPa Calm     95% 0.0 mm 0 W/m2
22:59 8.8 °C 8 °C 1023.0 hPa Calm     95% 0.0 mm 0 W/m2
23:04 8.7 °C 7.9 °C 1023.0 hPa Calm     95% 0.0 mm 0 W/m2
23:09 8.7 °C 7.9 °C 1023.0 hPa Calm     95% 0.0 mm 0 W/m2
23:14 8.6 °C 7.8 °C 1023.0 hPa Calm     95% 0.0 mm 0 W/m2
23:19 8.6 °C 7.8 °C 1023.0 hPa Calm     95% 0.0 mm 0 W/m2
23:24 8.5 °C 7.7 °C 1023.0 hPa Calm     95% 0.0 mm 0 W/m2
23:29 8.5 °C 7.7 °C 1023.0 hPa Calm     95% 0.0 mm 0 W/m2
23:34 8.4 °C 7.6 °C 1023.0 hPa Calm     95% 0.0 mm 0 W/m2
23:39 8.3 °C 7.5 °C 1023.0 hPa Calm     95% 0.0 mm 0 W/m2
23:44 8.3 °C 7.5 °C 1023.0 hPa Calm     95% 0.0 mm 0 W/m2
23:49 8.2 °C 7.4 °C 1023.0 hPa Calm     95% 0.0 mm 0 W/m2
23:54 8.2 °C 7.4 °C 1023.0 hPa Calm     95% 0.0 mm 0 W/m2
23:59 8.1 °C 7.3 °C 1023.0 hPa Calm     95% 0.0 mm 0 W/m2
Juneau County Weather
Compliments of Weather Underground - 4 mb